sensor_id;sensor_type;location;lat;lon;timestamp;pressure;altitude;pressure_sealevel;temperature;humidity
46408;BME280;32110;45.724;21.276;2023-03-25T00:11:29;99933.34;;;11.57;nan
46408;BME280;32110;45.724;21.276;2023-03-25T04:29:03;99815.44;;;10.29;nan
46408;BME280;32110;45.724;21.276;2023-03-25T05:54:42;99912.38;;;12.28;nan
46408;BME280;32110;45.724;21.276;2023-03-25T05:57:10;99926.41;;;12.34;nan
46408;BME280;32110;45.724;21.276;2023-03-25T05:59:36;99902.59;;;12.29;nan
46408;BME280;32110;45.724;21.276;2023-03-25T06:02:15;99896.88;;;12.37;nan
46408;BME280;32110;45.724;21.276;2023-03-25T06:04:41;99917.59;;;12.50;nan
46408;BME280;32110;45.724;21.276;2023-03-25T06:07:08;99925.06;;;12.59;nan
46408;BME280;32110;45.724;21.276;2023-03-25T06:09:39;99928.25;;;12.61;nan
46408;BME280;32110;45.724;21.276;2023-03-25T06:12:15;99923.56;;;12.68;nan
46408;BME280;32110;45.724;21.276;2023-03-25T06:14:41;99907.13;;;12.61;nan
46408;BME280;32110;45.724;21.276;2023-03-25T06:17:14;99924.91;;;12.70;nan
46408;BME280;32110;45.724;21.276;2023-03-25T06:19:40;99930.78;;;12.77;nan
46408;BME280;32110;45.724;21.276;2023-03-25T06:22:07;99927.13;;;12.79;nan
46408;BME280;32110;45.724;21.276;2023-03-25T06:24:35;99919.69;;;12.75;nan
46408;BME280;32110;45.724;21.276;2023-03-25T06:27:02;99926.28;;;12.78;nan
46408;BME280;32110;45.724;21.276;2023-03-25T06:29:28;99928.97;;;12.83;nan
46408;BME280;32110;45.724;21.276;2023-03-25T06:31:53;99932.13;;;12.80;nan
46408;BME280;32110;45.724;21.276;2023-03-25T06:34:19;99938.06;;;12.92;nan
46408;BME280;32110;45.724;21.276;2023-03-25T06:36:44;99924.84;;;12.92;nan
46408;BME280;32110;45.724;21.276;2023-03-25T06:39:09;99935.97;;;12.94;nan
46408;BME280;32110;45.724;21.276;2023-03-25T06:41:35;99945.53;;;13.01;nan
46408;BME280;32110;45.724;21.276;2023-03-25T06:44:02;99937.06;;;12.98;nan
46408;BME280;32110;45.724;21.276;2023-03-25T06:46:29;99942.09;;;13.00;nan
46408;BME280;32110;45.724;21.276;2023-03-25T06:48:54;99949.47;;;12.98;nan
46408;BME280;32110;45.724;21.276;2023-03-25T06:51:19;99926.72;;;12.97;nan
46408;BME280;32110;45.724;21.276;2023-03-25T06:53:47;99942.13;;;13.05;nan
46408;BME280;32110;45.724;21.276;2023-03-25T06:56:12;99954.34;;;13.11;nan
46408;BME280;32110;45.724;21.276;2023-03-25T06:58:37;99946.69;;;13.10;nan
46408;BME280;32110;45.724;21.276;2023-03-25T07:01:03;99956.53;;;13.19;nan
46408;BME280;32110;45.724;21.276;2023-03-25T07:03:31;99945.13;;;13.19;nan
46408;BME280;32110;45.724;21.276;2023-03-25T07:05:57;99941.91;;;13.12;nan
46408;BME280;32110;45.724;21.276;2023-03-25T07:08:22;99955.19;;;13.17;nan
46408;BME280;32110;45.724;21.276;2023-03-25T07:10:48;99967.19;;;13.30;nan
46408;BME280;32110;45.724;21.276;2023-03-25T07:13:13;99973.84;;;13.32;nan
46408;BME280;32110;45.724;21.276;2023-03-25T07:15:39;99960.31;;;13.29;nan
46408;BME280;32110;45.724;21.276;2023-03-25T07:18:04;99961.66;;;13.31;nan
46408;BME280;32110;45.724;21.276;2023-03-25T07:20:30;99976.81;;;13.41;nan
46408;BME280;32110;45.724;21.276;2023-03-25T07:22:55;99981.59;;;13.44;nan
46408;BME280;32110;45.724;21.276;2023-03-25T07:25:21;99983.47;;;13.49;nan
46408;BME280;32110;45.724;21.276;2023-03-25T07:27:47;99985.31;;;13.48;nan
46408;BME280;32110;45.724;21.276;2023-03-25T07:30:12;99995.94;;;13.53;nan
46408;BME280;32110;45.724;21.276;2023-03-25T07:32:38;99999.91;;;13.56;nan
46408;BME280;32110;45.724;21.276;2023-03-25T07:35:04;99982.38;;;13.45;nan
46408;BME280;32110;45.724;21.276;2023-03-25T07:37:30;99997.78;;;13.53;nan
46408;BME280;32110;45.724;21.276;2023-03-25T07:39:56;99994.09;;;13.54;nan
46408;BME280;32110;45.724;21.276;2023-03-25T07:42:21;99986.69;;;13.56;nan
46408;BME280;32110;45.724;21.276;2023-03-25T07:44:47;99987.53;;;13.61;nan
46408;BME280;32110;45.724;21.276;2023-03-25T07:47:12;99981.72;;;13.65;nan
46408;BME280;32110;45.724;21.276;2023-03-25T07:49:37;99994.22;;;13.74;nan
46408;BME280;32110;45.724;21.276;2023-03-25T07:52:06;99983.66;;;13.79;nan
46408;BME280;32110;45.724;21.276;2023-03-25T07:54:32;99985.50;;;13.79;nan
46408;BME280;32110;45.724;21.276;2023-03-25T07:56:57;99988.19;;;13.84;nan
46408;BME280;32110;45.724;21.276;2023-03-25T07:59:23;99974.88;;;13.74;nan
46408;BME280;32110;45.724;21.276;2023-03-25T08:01:48;99981.56;;;13.81;nan
46408;BME280;32110;45.724;21.276;2023-03-25T08:04:14;99979.69;;;13.77;nan
46408;BME280;32110;45.724;21.276;2023-03-25T08:06:40;99983.41;;;13.86;nan
46408;BME280;32110;45.724;21.276;2023-03-25T08:09:05;99990.31;;;13.82;nan
46408;BME280;32110;45.724;21.276;2023-03-25T08:11:31;99981.78;;;13.75;nan
46408;BME280;32110;45.724;21.276;2023-03-25T08:13:57;100012.03;;;13.84;nan
46408;BME280;32110;45.724;21.276;2023-03-25T08:16:22;100011.19;;;13.83;nan
46408;BME280;32110;45.724;21.276;2023-03-25T08:18:48;100018.63;;;13.81;nan
46408;BME280;32110;45.724;21.276;2023-03-25T08:21:20;100016.22;;;13.80;nan
46408;BME280;32110;45.724;21.276;2023-03-25T08:23:55;100022.31;;;13.80;nan
46408;BME280;32110;45.724;21.276;2023-03-25T08:26:29;100022.81;;;13.77;nan
46408;BME280;32110;45.724;21.276;2023-03-25T08:28:55;100021.19;;;13.71;nan
46408;BME280;32110;45.724;21.276;2023-03-25T08:31:23;100037.06;;;13.71;nan
46408;BME280;32110;45.724;21.276;2023-03-25T08:33:48;100017.97;;;13.64;nan
46408;BME280;32110;45.724;21.276;2023-03-25T08:36:14;100014.25;;;13.60;nan
46408;BME280;32110;45.724;21.276;2023-03-25T08:38:45;100014.75;;;13.62;nan
46408;BME280;32110;45.724;21.276;2023-03-25T08:41:11;100013.19;;;13.61;nan
46408;BME280;32110;45.724;21.276;2023-03-25T08:43:37;100022.75;;;13.67;nan
46408;BME280;32110;45.724;21.276;2023-03-25T08:46:02;100023.00;;;13.66;nan
46408;BME280;32110;45.724;21.276;2023-03-25T08:48:28;100016.09;;;13.65;nan
46408;BME280;32110;45.724;21.276;2023-03-25T08:50:53;100009.75;;;13.60;nan
46408;BME280;32110;45.724;21.276;2023-03-25T08:53:19;100018.50;;;13.66;nan
46408;BME280;32110;45.724;21.276;2023-03-25T08:55:44;100016.09;;;13.65;nan
46408;BME280;32110;45.724;21.276;2023-03-25T08:58:09;100018.50;;;13.66;nan
46408;BME280;32110;45.724;21.276;2023-03-25T09:00:36;100013.19;;;13.61;nan
46408;BME280;32110;45.724;21.276;2023-03-25T09:03:04;100012.44;;;13.66;nan
46408;BME280;32110;45.724;21.276;2023-03-25T09:05:30;100021.19;;;13.71;nan
46408;BME280;32110;45.724;21.276;2023-03-25T09:07:55;100013.25;;;13.71;nan
46408;BME280;32110;45.724;21.276;2023-03-25T09:10:21;100023.63;;;13.78;nan
46408;BME280;32110;45.724;21.276;2023-03-25T09:12:46;100023.91;;;13.81;nan
46408;BME280;32110;45.724;21.276;2023-03-25T09:15:11;100027.06;;;13.83;nan
46408;BME280;32110;45.724;21.276;2023-03-25T09:17:37;100022.59;;;13.84;nan
46408;BME280;32110;45.724;21.276;2023-03-25T09:20:04;100031.31;;;13.79;nan
46408;BME280;32110;45.724;21.276;2023-03-25T09:22:37;100035.19;;;13.72;nan
46408;BME280;32110;45.724;21.276;2023-03-25T09:25:03;100044.78;;;13.78;nan
46408;BME280;32110;45.724;21.276;2023-03-25T09:27:30;100042.38;;;13.76;nan
46408;BME280;32110;45.724;21.276;2023-03-25T09:29:56;100042.91;;;13.73;nan
46408;BME280;32110;45.724;21.276;2023-03-25T09:32:21;100041.91;;;13.79;nan
46408;BME280;32110;45.724;21.276;2023-03-25T09:34:46;100030.25;;;13.80;nan
46408;BME280;32110;45.724;21.276;2023-03-25T09:37:12;100059.66;;;13.84;nan
46408;BME280;32110;45.724;21.276;2023-03-25T09:39:37;100049.28;;;13.77;nan
46408;BME280;32110;45.724;21.276;2023-03-25T09:50:47;100038.97;;;13.44;nan
46408;BME280;32110;45.724;21.276;2023-03-25T09:53:25;100053.78;;;13.45;nan
46408;BME280;32110;45.724;21.276;2023-03-25T09:55:53;100051.16;;;13.45;nan
46408;BME280;32110;45.724;21.276;2023-03-25T09:58:55;100048.84;;;13.53;nan
46408;BME280;32110;45.724;21.276;2023-03-25T10:13:12;100041.81;;;13.69;nan
46408;BME280;32110;45.724;21.276;2023-03-25T10:18:34;100041.63;;;13.81;nan
46408;BME280;32110;45.724;21.276;2023-03-25T10:21:19;100045.66;;;13.89;nan
46408;BME280;32110;45.724;21.276;2023-03-25T10:24:28;100038.72;;;13.82;nan
46408;BME280;32110;45.724;21.276;2023-03-25T10:29:32;100036.41;;;13.91;nan
46408;BME280;32110;45.724;21.276;2023-03-25T10:32:16;100039.84;;;13.92;nan
46408;BME280;32110;45.724;21.276;2023-03-25T10:34:48;100030.34;;;13.96;nan
46408;BME280;32110;45.724;21.276;2023-03-25T10:37:19;100034.63;;;14.07;nan
46408;BME280;32110;45.724;21.276;2023-03-25T10:39:48;100029.13;;;14.14;nan
46408;BME280;32110;45.724;21.276;2023-03-25T10:42:19;100016.66;;;14.14;nan
46408;BME280;32110;45.724;21.276;2023-03-25T10:44:49;100010.56;;;14.14;nan
46408;BME280;32110;45.724;21.276;2023-03-25T10:47:18;100023.63;;;14.31;nan
46408;BME280;32110;45.724;21.276;2023-03-25T10:49:45;100026.84;;;14.38;nan
46408;BME280;32110;45.724;21.276;2023-03-25T10:52:13;100018.91;;;14.43;nan
46408;BME280;32110;45.724;21.276;2023-03-25T10:54:43;100016.00;;;14.50;nan
46408;BME280;32110;45.724;21.276;2023-03-25T10:57:22;100001.69;;;14.45;nan
46408;BME280;32110;45.724;21.276;2023-03-25T11:00:14;100004.66;;;14.54;nan
46408;BME280;32110;45.724;21.276;2023-03-25T11:02:44;100009.19;;;14.64;nan
46408;BME280;32110;45.724;21.276;2023-03-25T11:05:11;100008.66;;;14.67;nan
46408;BME280;32110;45.724;21.276;2023-03-25T11:07:41;100012.16;;;14.73;nan
46408;BME280;32110;45.724;21.276;2023-03-25T11:12:39;100011.06;;;14.63;nan
46408;BME280;32110;45.724;21.276;2023-03-25T11:15:21;100007.09;;;14.71;nan
46408;BME280;32110;45.724;21.276;2023-03-25T11:17:58;100018.00;;;14.80;nan
46408;BME280;32110;45.724;21.276;2023-03-25T11:20:28;100010.03;;;14.80;nan
46408;BME280;32110;45.724;21.276;2023-03-25T11:23:00;100005.00;;;14.78;nan
46408;BME280;32110;45.724;21.276;2023-03-25T11:25:35;100011.63;;;14.86;nan
46408;BME280;32110;45.724;21.276;2023-03-25T11:28:09;100005.00;;;14.83;nan
46408;BME280;32110;45.724;21.276;2023-03-25T11:30:36;100010.84;;;14.80;nan
46408;BME280;32110;45.724;21.276;2023-03-25T11:33:04;99996.25;;;14.73;nan
46408;BME280;32110;45.724;21.276;2023-03-25T11:35:35;100014.53;;;14.79;nan
46408;BME280;32110;45.724;21.276;2023-03-25T11:38:13;100006.56;;;14.79;nan
46408;BME280;32110;45.724;21.276;2023-03-25T11:40:49;99985.09;;;14.71;nan
46408;BME280;32110;45.724;21.276;2023-03-25T11:43:20;99997.28;;;14.82;nan
46408;BME280;32110;45.724;21.276;2023-03-25T11:45:47;99983.53;;;14.85;nan
46408;BME280;32110;45.724;21.276;2023-03-25T11:48:19;99990.72;;;15.00;nan
46408;BME280;32110;45.724;21.276;2023-03-25T11:50:48;99985.16;;;15.06;nan
46408;BME280;32110;45.724;21.276;2023-03-25T11:53:18;99978.78;;;15.07;nan
46408;BME280;32110;45.724;21.276;2023-03-25T11:55:47;99991.00;;;15.14;nan
46408;BME280;32110;45.724;21.276;2023-03-25T11:58:16;99993.63;;;15.19;nan
46408;BME280;32110;45.724;21.276;2023-03-25T12:00:48;99987.81;;;15.12;nan
46408;BME280;32110;45.724;21.276;2023-03-25T12:05:40;99970.28;;;15.05;nan
46408;BME280;32110;45.724;21.276;2023-03-25T12:08:10;99990.72;;;15.15;nan
46408;BME280;32110;45.724;21.276;2023-03-25T12:13:32;99975.31;;;15.27;nan
46408;BME280;32110;45.724;21.276;2023-03-25T12:16:16;99966.59;;;15.37;nan
46408;BME280;32110;45.724;21.276;2023-03-25T12:27:32;99940.72;;;15.89;nan
46408;BME280;32110;45.724;21.276;2023-03-25T12:35:21;99949.69;;;16.08;nan
46408;BME280;32110;45.724;21.276;2023-03-25T12:40:22;99949.13;;;16.16;nan
46408;BME280;32110;45.724;21.276;2023-03-25T12:43:28;99946.97;;;16.24;nan
46408;BME280;32110;45.724;21.276;2023-03-25T12:46:18;99929.41;;;16.28;nan
46408;BME280;32110;45.724;21.276;2023-03-25T12:49:19;99932.28;;;16.36;nan
46408;BME280;32110;45.724;21.276;2023-03-25T12:54:41;99933.59;;;16.39;nan
46408;BME280;32110;45.724;21.276;2023-03-25T12:58:03;99934.91;;;16.42;nan
46408;BME280;32110;45.724;21.276;2023-03-25T13:08:45;99928.53;;;16.37;nan
46408;BME280;32110;45.724;21.276;2023-03-25T13:11:39;99900.00;;;16.14;nan
46408;BME280;32110;45.724;21.276;2023-03-25T13:14:20;99912.72;;;16.17;nan
46408;BME280;32110;45.724;21.276;2023-03-25T13:16:50;99916.41;;;16.26;nan
46408;BME280;32110;45.724;21.276;2023-03-25T13:19:23;99910.03;;;16.22;nan
46408;BME280;32110;45.724;21.276;2023-03-25T13:21:52;99900.50;;;16.16;nan
46408;BME280;32110;45.724;21.276;2023-03-25T13:24:37;99915.09;;;16.24;nan
46408;BME280;32110;45.724;21.276;2023-03-25T13:27:04;99913.78;;;16.21;nan
46408;BME280;32110;45.724;21.276;2023-03-25T13:32:05;99913.28;;;16.14;nan
46408;BME280;32110;45.724;21.276;2023-03-25T13:34:40;99909.56;;;16.10;nan
46408;BME280;32110;45.724;21.276;2023-03-25T13:40:17;99909.22;;;16.27;nan
46408;BME280;32110;45.724;21.276;2023-03-25T13:45:22;99899.91;;;16.29;nan
46408;BME280;32110;45.724;21.276;2023-03-25T13:48:11;99908.97;;;16.28;nan
46408;BME280;32110;45.724;21.276;2023-03-25T13:50:38;99894.91;;;16.23;nan
46408;BME280;32110;45.724;21.276;2023-03-25T13:53:08;99891.19;;;16.24;nan
46408;BME280;32110;45.724;21.276;2023-03-25T13:55:39;99889.63;;;16.17;nan
46408;BME280;32110;45.724;21.276;2023-03-25T13:58:26;99888.25;;;16.20;nan
46408;BME280;32110;45.724;21.276;2023-03-25T14:09:29;99884.97;;;16.38;nan
46408;BME280;32110;45.724;21.276;2023-03-25T14:12:22;99886.50;;;16.45;nan
46408;BME280;32110;45.724;21.276;2023-03-25T14:15:00;99889.44;;;16.48;nan
46408;BME280;32110;45.724;21.276;2023-03-25T14:17:28;99869.28;;;16.37;nan
46408;BME280;32110;45.724;21.276;2023-03-25T14:19:57;99867.97;;;16.34;nan
46408;BME280;32110;45.724;21.276;2023-03-25T14:22:29;99873.25;;;16.40;nan
46408;BME280;32110;45.724;21.276;2023-03-25T14:24:56;99852.84;;;16.35;nan
46408;BME280;32110;45.724;21.276;2023-03-25T14:27:35;99854.44;;;16.36;nan
46408;BME280;32110;45.724;21.276;2023-03-25T14:30:20;99865.25;;;16.45;nan
46408;BME280;32110;45.724;21.276;2023-03-25T14:32:47;99859.41;;;16.48;nan
46408;BME280;32110;45.724;21.276;2023-03-25T14:48:42;99828.25;;;16.53;nan
46408;BME280;32110;45.724;21.276;2023-03-25T14:51:16;99836.44;;;16.62;nan
46408;BME280;32110;45.724;21.276;2023-03-25T14:53:55;99818.63;;;16.63;nan
46408;BME280;32110;45.724;21.276;2023-03-25T14:56:31;99815.69;;;16.64;nan
46408;BME280;32110;45.724;21.276;2023-03-25T14:59:07;99802.09;;;16.66;nan
46408;BME280;32110;45.724;21.276;2023-03-25T15:01:36;99810.13;;;16.61;nan
46408;BME280;32110;45.724;21.276;2023-03-25T15:04:11;99816.38;;;16.46;nan
46408;BME280;32110;45.724;21.276;2023-03-25T15:06:39;99817.03;;;16.27;nan
46408;BME280;32110;45.724;21.276;2023-03-25T15:09:08;99822.81;;;16.34;nan
46408;BME280;32110;45.724;21.276;2023-03-25T15:11:38;99817.09;;;16.17;nan
46408;BME280;32110;45.724;21.276;2023-03-25T15:14:27;99835.47;;;16.08;nan
46408;BME280;32110;45.724;21.276;2023-03-25T15:17:02;99827.25;;;16.10;nan
46408;BME280;32110;45.724;21.276;2023-03-25T15:22:26;99828.28;;;16.14;nan
46408;BME280;32110;45.724;21.276;2023-03-25T15:24:58;99817.41;;;16.10;nan
46408;BME280;32110;45.724;21.276;2023-03-25T15:27:39;99821.66;;;16.11;nan
46408;BME280;32110;45.724;21.276;2023-03-25T15:35:32;99815.44;;;16.26;nan
46408;BME280;32110;45.724;21.276;2023-03-25T15:55:26;99788.88;;;16.26;nan
46408;BME280;32110;45.724;21.276;2023-03-25T15:57:58;99796.63;;;16.17;nan
46408;BME280;32110;45.724;21.276;2023-03-25T16:00:28;99803.31;;;16.15;nan
46408;BME280;32110;45.724;21.276;2023-03-25T16:03:07;99790.88;;;16.05;nan
46408;BME280;32110;45.724;21.276;2023-03-25T16:05:38;99806.22;;;16.13;nan
46408;BME280;32110;45.724;21.276;2023-03-25T16:08:10;99815.28;;;16.12;nan
46408;BME280;32110;45.724;21.276;2023-03-25T16:10:40;99812.13;;;16.05;nan
46408;BME280;32110;45.724;21.276;2023-03-25T16:13:10;99811.38;;;15.94;nan
46408;BME280;32110;45.724;21.276;2023-03-25T16:15:36;99799.97;;;15.94;nan
46408;BME280;32110;45.724;21.276;2023-03-25T16:18:05;99797.94;;;15.81;nan
46408;BME280;32110;45.724;21.276;2023-03-25T16:20:33;99807.22;;;15.83;nan
46408;BME280;32110;45.724;21.276;2023-03-25T16:22:59;99801.69;;;15.74;nan
46408;BME280;32110;45.724;21.276;2023-03-25T16:25:53;99820.00;;;15.76;nan
46408;BME280;32110;45.724;21.276;2023-03-25T16:28:27;99820.22;;;15.80;nan
46408;BME280;32110;45.724;21.276;2023-03-25T16:30:53;99824.22;;;15.77;nan
46408;BME280;32110;45.724;21.276;2023-03-25T16:33:25;99816.56;;;15.76;nan
46408;BME280;32110;45.724;21.276;2023-03-25T16:36:02;99824.78;;;15.74;nan
46408;BME280;32110;45.724;21.276;2023-03-25T16:38:29;99816.03;;;15.68;nan
46408;BME280;32110;45.724;21.276;2023-03-25T16:41:10;99827.16;;;15.65;nan
46408;BME280;32110;45.724;21.276;2023-03-25T16:43:36;99816.06;;;15.58;nan
46408;BME280;32110;45.724;21.276;2023-03-25T16:46:03;99834.91;;;15.62;nan
46408;BME280;32110;45.724;21.276;2023-03-25T16:48:32;99823.28;;;15.47;nan
46408;BME280;32110;45.724;21.276;2023-03-25T16:51:09;99842.41;;;15.44;nan
46408;BME280;32110;45.724;21.276;2023-03-25T16:53:36;99830.47;;;15.31;nan
46408;BME280;32110;45.724;21.276;2023-03-25T16:58:54;99833.41;;;15.30;nan
46408;BME280;32110;45.724;21.276;2023-03-25T17:01:21;99829.47;;;15.12;nan
46408;BME280;32110;45.724;21.276;2023-03-25T17:03:48;99823.41;;;15.01;nan
46408;BME280;32110;45.724;21.276;2023-03-25T17:06:27;99821.56;;;14.97;nan
46408;BME280;32110;45.724;21.276;2023-03-25T17:08:56;99839.59;;;14.89;nan
46408;BME280;32110;45.724;21.276;2023-03-25T17:11:26;99839.31;;;14.91;nan
46408;BME280;32110;45.724;21.276;2023-03-25T17:13:57;99846.75;;;14.84;nan
46408;BME280;32110;45.724;21.276;2023-03-25T17:16:27;99849.41;;;14.84;nan
46408;BME280;32110;45.724;21.276;2023-03-25T17:18:55;99857.63;;;14.72;nan
46408;BME280;32110;45.724;21.276;2023-03-25T17:21:23;99876.44;;;14.65;nan
46408;BME280;32110;45.724;21.276;2023-03-25T17:23:52;99869.75;;;14.37;nan
46408;BME280;32110;45.724;21.276;2023-03-25T17:26:19;99874.75;;;14.23;nan
46408;BME280;32110;45.724;21.276;2023-03-25T17:33:49;99890.16;;;13.64;nan
46408;BME280;32110;45.724;21.276;2023-03-25T17:36:16;99872.84;;;13.40;nan
46408;BME280;32110;45.724;21.276;2023-03-25T17:38:45;99893.50;;;13.38;nan
46408;BME280;32110;45.724;21.276;2023-03-25T17:41:13;99887.53;;;13.26;nan
46408;BME280;32110;45.724;21.276;2023-03-25T17:43:41;99898.22;;;13.31;nan
46408;BME280;32110;45.724;21.276;2023-03-25T17:46:08;99860.19;;;13.05;nan
46408;BME280;32110;45.724;21.276;2023-03-25T17:48:33;99888.56;;;13.20;nan
46408;BME280;32110;45.724;21.276;2023-03-25T17:51:00;99893.81;;;13.10;nan
46408;BME280;32110;45.724;21.276;2023-03-25T17:53:26;99896.09;;;13.01;nan
46408;BME280;32110;45.724;21.276;2023-03-25T17:55:51;99903.72;;;12.97;nan
46408;BME280;32110;45.724;21.276;2023-03-25T17:58:19;99910.63;;;12.98;nan
46408;BME280;32110;45.724;21.276;2023-03-25T18:00:45;99920.97;;;13.00;nan
46408;BME280;32110;45.724;21.276;2023-03-25T18:03:20;99925.19;;;13.01;nan
46408;BME280;32110;45.724;21.276;2023-03-25T18:05:50;99927.50;;;12.97;nan
46408;BME280;32110;45.724;21.276;2023-03-25T18:08:21;99911.53;;;12.82;nan
46408;BME280;32110;45.724;21.276;2023-03-25T18:10:47;99919.28;;;12.89;nan
46408;BME280;32110;45.724;21.276;2023-03-25T18:13:13;99915.84;;;12.88;nan
46408;BME280;32110;45.724;21.276;2023-03-25T18:15:38;99917.03;;;12.75;nan
46408;BME280;32110;45.724;21.276;2023-03-25T18:18:04;99933.44;;;12.77;nan
46408;BME280;32110;45.724;21.276;2023-03-25T18:20:33;99927.16;;;12.56;nan
46408;BME280;32110;45.724;21.276;2023-03-25T18:22:59;99917.94;;;12.59;nan
46408;BME280;32110;45.724;21.276;2023-03-25T18:25:26;99927.75;;;12.64;nan
46408;BME280;32110;45.724;21.276;2023-03-25T18:27:53;99934.28;;;12.56;nan
46408;BME280;32110;45.724;21.276;2023-03-25T18:30:23;99925.63;;;12.61;nan
46408;BME280;32110;45.724;21.276;2023-03-25T18:32:49;99923.38;;;12.47;nan
46408;BME280;32110;45.724;21.276;2023-03-25T18:35:15;99937.66;;;12.51;nan
46408;BME280;32110;45.724;21.276;2023-03-25T18:37:40;99931.13;;;12.32;nan
46408;BME280;32110;45.724;21.276;2023-03-25T18:40:15;99915.19;;;12.22;nan
46408;BME280;32110;45.724;21.276;2023-03-25T18:42:41;99916.13;;;12.10;nan
46408;BME280;32110;45.724;21.276;2023-03-25T18:45:07;99923.19;;;12.05;nan
46408;BME280;32110;45.724;21.276;2023-03-25T18:47:32;99909.16;;;11.82;nan
46408;BME280;32110;45.724;21.276;2023-03-25T18:49:57;99925.22;;;11.98;nan
46408;BME280;32110;45.724;21.276;2023-03-25T18:52:23;99911.63;;;11.89;nan
46408;BME280;32110;45.724;21.276;2023-03-25T18:54:48;99933.91;;;11.98;nan
46408;BME280;32110;45.724;21.276;2023-03-25T18:57:13;99941.66;;;12.05;nan
46408;BME280;32110;45.724;21.276;2023-03-25T18:59:39;99936.56;;;11.98;nan
46408;BME280;32110;45.724;21.276;2023-03-25T19:02:04;99932.41;;;12.02;nan
46408;BME280;32110;45.724;21.276;2023-03-25T19:04:30;99939.25;;;12.03;nan
46408;BME280;32110;45.724;21.276;2023-03-25T19:06:56;99929.44;;;11.99;nan
46408;BME280;32110;45.724;21.276;2023-03-25T19:09:22;99928.94;;;12.02;nan
46408;BME280;32110;45.724;21.276;2023-03-25T19:11:47;99916.19;;;11.94;nan
46408;BME280;32110;45.724;21.276;2023-03-25T19:14:13;99921.50;;;11.99;nan
46408;BME280;32110;45.724;21.276;2023-03-25T19:16:38;99919.06;;;11.92;nan
46408;BME280;32110;45.724;21.276;2023-03-25T19:19:04;99921.22;;;11.95;nan
46408;BME280;32110;45.724;21.276;2023-03-25T19:21:29;99934.41;;;11.95;nan
46408;BME280;32110;45.724;21.276;2023-03-25T19:23:55;99930.09;;;11.89;nan
46408;BME280;32110;45.724;21.276;2023-03-25T19:26:20;99937.00;;;11.90;nan
46408;BME280;32110;45.724;21.276;2023-03-25T19:28:46;99940.81;;;11.82;nan
46408;BME280;32110;45.724;21.276;2023-03-25T19:31:12;99951.91;;;11.84;nan
46408;BME280;32110;45.724;21.276;2023-03-25T19:33:41;99956.41;;;11.84;nan
46408;BME280;32110;45.724;21.276;2023-03-25T19:36:06;99958.47;;;11.82;nan
46408;BME280;32110;45.724;21.276;2023-03-25T19:38:32;99948.09;;;11.75;nan
46408;BME280;32110;45.724;21.276;2023-03-25T19:41:06;99960.31;;;11.81;nan
46408;BME280;32110;45.724;21.276;2023-03-25T19:43:32;99965.84;;;11.80;nan
46408;BME280;32110;45.724;21.276;2023-03-25T19:45:58;99970.81;;;11.76;nan
46408;BME280;32110;45.724;21.276;2023-03-25T19:48:24;99976.31;;;11.75;nan
46408;BME280;32110;45.724;21.276;2023-03-25T19:50:52;99967.06;;;11.72;nan
46408;BME280;32110;45.724;21.276;2023-03-25T19:53:19;99982.38;;;11.75;nan
46408;BME280;32110;45.724;21.276;2023-03-25T19:55:44;99968.56;;;11.68;nan
46408;BME280;32110;45.724;21.276;2023-03-25T19:58:10;99974.91;;;11.67;nan
46408;BME280;32110;45.724;21.276;2023-03-25T20:00:36;99976.19;;;11.64;nan
46408;BME280;32110;45.724;21.276;2023-03-25T20:03:03;99981.47;;;11.64;nan
46408;BME280;32110;45.724;21.276;2023-03-25T20:05:29;99984.31;;;11.63;nan
46408;BME280;32110;45.724;21.276;2023-03-25T20:07:55;99971.22;;;11.51;nan
46408;BME280;32110;45.724;21.276;2023-03-25T20:10:24;99989.22;;;11.54;nan
46408;BME280;32110;45.724;21.276;2023-03-25T20:12:50;99991.88;;;11.54;nan
46408;BME280;32110;45.724;21.276;2023-03-25T20:15:17;99977.72;;;11.43;nan
46408;BME280;32110;45.724;21.276;2023-03-25T20:17:43;99982.25;;;11.48;nan
46408;BME280;32110;45.724;21.276;2023-03-25T20:20:11;99981.41;;;11.42;nan
46408;BME280;32110;45.724;21.276;2023-03-25T20:22:37;99993.88;;;11.47;nan
46408;BME280;32110;45.724;21.276;2023-03-25T20:25:04;99998.31;;;11.46;nan
46408;BME280;32110;45.724;21.276;2023-03-25T20:27:30;100002.78;;;11.46;nan
46408;BME280;32110;45.724;21.276;2023-03-25T20:29:55;100010.72;;;11.46;nan
46408;BME280;32110;45.724;21.276;2023-03-25T20:32:21;100008.56;;;11.43;nan
46408;BME280;32110;45.724;21.276;2023-03-25T20:34:47;99999.53;;;11.39;nan
46408;BME280;32110;45.724;21.276;2023-03-25T20:37:14;100005.28;;;11.36;nan
46408;BME280;32110;45.724;21.276;2023-03-25T20:39:40;99999.22;;;11.35;nan
46408;BME280;32110;45.724;21.276;2023-03-25T20:42:06;99999.38;;;11.28;nan
46408;BME280;32110;45.724;21.276;2023-03-25T20:44:31;100007.84;;;11.31;nan
46408;BME280;32110;45.724;21.276;2023-03-25T20:46:58;100006.47;;;11.28;nan
46408;BME280;32110;45.724;21.276;2023-03-25T20:49:23;100001.22;;;11.28;nan
46408;BME280;32110;45.724;21.276;2023-03-25T20:51:50;100011.50;;;11.29;nan
46408;BME280;32110;45.724;21.276;2023-03-25T20:54:19;100019.19;;;11.31;nan
46408;BME280;32110;45.724;21.276;2023-03-25T20:56:45;100016.47;;;11.26;nan
46408;BME280;32110;45.724;21.276;2023-03-25T20:59:11;100022.03;;;11.29;nan
46408;BME280;32110;45.724;21.276;2023-03-25T21:01:41;100019.66;;;11.28;nan
46408;BME280;32110;45.724;21.276;2023-03-25T21:04:06;100016.69;;;11.24;nan
46408;BME280;32110;45.724;21.276;2023-03-25T21:06:33;100013.75;;;11.21;nan
46408;BME280;32110;45.724;21.276;2023-03-25T21:08:58;100021.41;;;11.22;nan
46408;BME280;32110;45.724;21.276;2023-03-25T21:11:24;100028.28;;;11.23;nan
46408;BME280;32110;45.724;21.276;2023-03-25T21:13:49;100020.38;;;11.23;nan